sensor_id;sensor_type;location;lat;lon;timestamp;P1;durP1;ratioP1;P2;durP2;ratioP2
52866;SDS011;38739;53.324;6.862;2022-09-09T00:00:23;15.00;;;11.27;;
52866;SDS011;38739;53.324;6.862;2022-09-09T00:03:05;20.77;;;11.48;;
52866;SDS011;38739;53.324;6.862;2022-09-09T00:05:45;17.10;;;11.48;;
52866;SDS011;38739;53.324;6.862;2022-09-09T00:08:22;17.85;;;11.90;;
52866;SDS011;38739;53.324;6.862;2022-09-09T00:10:58;15.82;;;11.18;;
52866;SDS011;38739;53.324;6.862;2022-09-09T00:13:30;17.63;;;11.05;;
52866;SDS011;38739;53.324;6.862;2022-09-09T00:21:36;16.17;;;10.98;;
52866;SDS011;38739;53.324;6.862;2022-09-09T00:27:14;17.75;;;10.80;;
52866;SDS011;38739;53.324;6.862;2022-09-09T00:30:12;15.98;;;11.45;;
52866;SDS011;38739;53.324;6.862;2022-09-09T00:32:43;16.17;;;10.98;;
52866;SDS011;38739;53.324;6.862;2022-09-09T00:37:35;18.58;;;12.38;;
52866;SDS011;38739;53.324;6.862;2022-09-09T00:40:02;18.52;;;12.27;;
52866;SDS011;38739;53.324;6.862;2022-09-09T00:42:40;15.60;;;11.55;;
52866;SDS011;38739;53.324;6.862;2022-09-09T00:45:19;19.48;;;12.35;;
52866;SDS011;38739;53.324;6.862;2022-09-09T00:47:53;21.52;;;11.93;;
52866;SDS011;38739;53.324;6.862;2022-09-09T00:50:31;17.38;;;12.65;;
52866;SDS011;38739;53.324;6.862;2022-09-09T00:58:33;23.25;;;12.60;;
52866;SDS011;38739;53.324;6.862;2022-09-09T01:01:04;18.92;;;12.60;;
52866;SDS011;38739;53.324;6.862;2022-09-09T01:03:47;20.35;;;12.82;;
52866;SDS011;38739;53.324;6.862;2022-09-09T01:14:25;17.48;;;12.40;;
52866;SDS011;38739;53.324;6.862;2022-09-09T01:17:07;18.10;;;12.52;;
52866;SDS011;38739;53.324;6.862;2022-09-09T01:19:40;18.75;;;12.77;;
52866;SDS011;38739;53.324;6.862;2022-09-09T01:27:51;17.80;;;11.68;;
52866;SDS011;38739;53.324;6.862;2022-09-09T01:30:20;19.23;;;12.73;;
52866;SDS011;38739;53.324;6.862;2022-09-09T01:32:48;19.40;;;12.10;;
52866;SDS011;38739;53.324;6.862;2022-09-09T01:38:02;16.15;;;11.35;;
52866;SDS011;38739;53.324;6.862;2022-09-09T01:40:28;19.38;;;11.10;;
52866;SDS011;38739;53.324;6.862;2022-09-09T01:42:53;20.17;;;13.20;;
52866;SDS011;38739;53.324;6.862;2022-09-09T01:45:20;22.13;;;13.40;;
52866;SDS011;38739;53.324;6.862;2022-09-09T01:47:47;17.42;;;12.00;;
52866;SDS011;38739;53.324;6.862;2022-09-09T01:50:14;17.85;;;12.50;;
52866;SDS011;38739;53.324;6.862;2022-09-09T01:52:41;17.02;;;12.00;;
52866;SDS011;38739;53.324;6.862;2022-09-09T01:55:08;17.60;;;13.15;;
52866;SDS011;38739;53.324;6.862;2022-09-09T02:00:24;21.17;;;12.85;;
52866;SDS011;38739;53.324;6.862;2022-09-09T02:08:20;19.05;;;12.02;;
52866;SDS011;38739;53.324;6.862;2022-09-09T02:11:09;18.75;;;12.23;;
52866;SDS011;38739;53.324;6.862;2022-09-09T02:13:38;19.23;;;12.55;;
52866;SDS011;38739;53.324;6.862;2022-09-09T02:18:46;19.57;;;11.57;;
52866;SDS011;38739;53.324;6.862;2022-09-09T02:21:18;19.45;;;12.38;;
52866;SDS011;38739;53.324;6.862;2022-09-09T02:23:44;15.32;;;11.23;;
52866;SDS011;38739;53.324;6.862;2022-09-09T02:26:13;20.48;;;12.48;;
52866;SDS011;38739;53.324;6.862;2022-09-09T02:28:45;18.45;;;12.15;;
52866;SDS011;38739;53.324;6.862;2022-09-09T02:31:14;18.25;;;12.65;;
52866;SDS011;38739;53.324;6.862;2022-09-09T02:33:43;20.95;;;12.90;;
52866;SDS011;38739;53.324;6.862;2022-09-09T02:36:13;16.88;;;12.85;;
52866;SDS011;38739;53.324;6.862;2022-09-09T02:38:42;22.10;;;12.68;;
52866;SDS011;38739;53.324;6.862;2022-09-09T02:41:22;20.88;;;12.52;;
52866;SDS011;38739;53.324;6.862;2022-09-09T02:43:52;16.77;;;11.80;;
52866;SDS011;38739;53.324;6.862;2022-09-09T02:46:31;17.70;;;12.20;;
52866;SDS011;38739;53.324;6.862;2022-09-09T02:49:07;19.00;;;12.13;;
52866;SDS011;38739;53.324;6.862;2022-09-09T02:56:55;19.75;;;12.23;;
52866;SDS011;38739;53.324;6.862;2022-09-09T02:59:26;17.90;;;11.68;;
52866;SDS011;38739;53.324;6.862;2022-09-09T03:01:52;18.67;;;11.63;;
52866;SDS011;38739;53.324;6.862;2022-09-09T03:04:18;18.73;;;11.98;;
52866;SDS011;38739;53.324;6.862;2022-09-09T03:06:45;17.60;;;12.13;;
52866;SDS011;38739;53.324;6.862;2022-09-09T03:09:10;19.30;;;12.18;;
52866;SDS011;38739;53.324;6.862;2022-09-09T03:11:36;16.33;;;11.40;;
52866;SDS011;38739;53.324;6.862;2022-09-09T03:14:03;20.17;;;12.00;;
52866;SDS011;38739;53.324;6.862;2022-09-09T03:16:29;20.10;;;12.50;;
52866;SDS011;38739;53.324;6.862;2022-09-09T03:18:55;20.65;;;11.38;;
52866;SDS011;38739;53.324;6.862;2022-09-09T03:21:20;18.85;;;11.80;;
52866;SDS011;38739;53.324;6.862;2022-09-09T03:23:46;15.73;;;10.82;;
52866;SDS011;38739;53.324;6.862;2022-09-09T03:26:12;21.15;;;11.73;;
52866;SDS011;38739;53.324;6.862;2022-09-09T03:28:40;20.35;;;11.45;;
52866;SDS011;38739;53.324;6.862;2022-09-09T03:31:06;21.00;;;10.98;;
52866;SDS011;38739;53.324;6.862;2022-09-09T03:33:35;15.82;;;11.15;;
52866;SDS011;38739;53.324;6.862;2022-09-09T03:36:05;17.52;;;11.15;;
52866;SDS011;38739;53.324;6.862;2022-09-09T03:38:32;15.80;;;10.55;;
52866;SDS011;38739;53.324;6.862;2022-09-09T03:40:59;16.20;;;10.82;;
52866;SDS011;38739;53.324;6.862;2022-09-09T03:43:26;17.35;;;9.95;;
52866;SDS011;38739;53.324;6.862;2022-09-09T03:45:53;14.10;;;9.57;;
52866;SDS011;38739;53.324;6.862;2022-09-09T03:48:21;17.50;;;10.38;;
52866;SDS011;38739;53.324;6.862;2022-09-09T03:50:51;15.80;;;10.23;;
52866;SDS011;38739;53.324;6.862;2022-09-09T03:53:19;19.02;;;10.25;;
52866;SDS011;38739;53.324;6.862;2022-09-09T03:55:47;13.55;;;9.70;;
52866;SDS011;38739;53.324;6.862;2022-09-09T03:58:15;16.23;;;9.88;;
52866;SDS011;38739;53.324;6.862;2022-09-09T04:00:41;15.38;;;9.73;;
52866;SDS011;38739;53.324;6.862;2022-09-09T04:03:10;14.90;;;9.45;;
52866;SDS011;38739;53.324;6.862;2022-09-09T04:05:36;15.05;;;9.15;;
52866;SDS011;38739;53.324;6.862;2022-09-09T04:08:08;13.73;;;8.85;;
52866;SDS011;38739;53.324;6.862;2022-09-09T04:10:34;14.77;;;8.15;;
52866;SDS011;38739;53.324;6.862;2022-09-09T04:13:05;11.80;;;7.97;;
52866;SDS011;38739;53.324;6.862;2022-09-09T04:15:31;14.02;;;8.30;;
52866;SDS011;38739;53.324;6.862;2022-09-09T04:17:57;13.63;;;7.65;;
52866;SDS011;38739;53.324;6.862;2022-09-09T04:20:23;10.95;;;7.40;;
52866;SDS011;38739;53.324;6.862;2022-09-09T04:22:49;11.25;;;6.85;;
52866;SDS011;38739;53.324;6.862;2022-09-09T04:25:15;12.38;;;7.40;;
52866;SDS011;38739;53.324;6.862;2022-09-09T04:27:40;11.43;;;6.78;;
52866;SDS011;38739;53.324;6.862;2022-09-09T04:30:07;14.68;;;7.30;;
52866;SDS011;38739;53.324;6.862;2022-09-09T04:32:34;10.55;;;6.95;;
52866;SDS011;38739;53.324;6.862;2022-09-09T04:35:00;12.02;;;7.18;;
52866;SDS011;38739;53.324;6.862;2022-09-09T04:37:26;11.80;;;6.55;;
52866;SDS011;38739;53.324;6.862;2022-09-09T04:39:52;8.98;;;6.22;;
52866;SDS011;38739;53.324;6.862;2022-09-09T04:42:18;10.50;;;5.97;;
52866;SDS011;38739;53.324;6.862;2022-09-09T04:44:44;11.32;;;6.13;;
52866;SDS011;38739;53.324;6.862;2022-09-09T04:47:10;13.60;;;5.80;;
52866;SDS011;38739;53.324;6.862;2022-09-09T04:49:36;11.10;;;5.80;;
52866;SDS011;38739;53.324;6.862;2022-09-09T04:52:03;8.98;;;4.90;;
52866;SDS011;38739;53.324;6.862;2022-09-09T04:54:29;6.32;;;2.90;;
52866;SDS011;38739;53.324;6.862;2022-09-09T04:56:55;8.80;;;2.63;;
52866;SDS011;38739;53.324;6.862;2022-09-09T04:59:21;7.43;;;2.50;;
52866;SDS011;38739;53.324;6.862;2022-09-09T05:01:47;9.57;;;2.55;;
52866;SDS011;38739;53.324;6.862;2022-09-09T05:04:14;8.88;;;2.40;;
52866;SDS011;38739;53.324;6.862;2022-09-09T05:06:41;8.93;;;2.55;;
52866;SDS011;38739;53.324;6.862;2022-09-09T05:09:07;11.40;;;3.17;;
52866;SDS011;38739;53.324;6.862;2022-09-09T05:11:33;9.80;;;3.70;;
52866;SDS011;38739;53.324;6.862;2022-09-09T05:14:02;13.88;;;4.45;;
52866;SDS011;38739;53.324;6.862;2022-09-09T05:16:28;12.75;;;4.90;;
52866;SDS011;38739;53.324;6.862;2022-09-09T05:18:55;12.30;;;5.45;;
52866;SDS011;38739;53.324;6.862;2022-09-09T05:21:21;12.95;;;5.00;;
52866;SDS011;38739;53.324;6.862;2022-09-09T05:23:49;11.88;;;5.38;;
52866;SDS011;38739;53.324;6.862;2022-09-09T05:26:16;9.80;;;5.78;;
52866;SDS011;38739;53.324;6.862;2022-09-09T05:28:44;11.05;;;5.43;;
52866;SDS011;38739;53.324;6.862;2022-09-09T05:31:11;13.48;;;5.93;;
52866;SDS011;38739;53.324;6.862;2022-09-09T05:33:38;9.70;;;5.80;;
52866;SDS011;38739;53.324;6.862;2022-09-09T05:36:12;12.18;;;5.82;;
52866;SDS011;38739;53.324;6.862;2022-09-09T05:38:42;10.23;;;5.65;;
52866;SDS011;38739;53.324;6.862;2022-09-09T05:41:12;12.07;;;6.00;;
52866;SDS011;38739;53.324;6.862;2022-09-09T05:43:40;12.20;;;6.15;;
52866;SDS011;38739;53.324;6.862;2022-09-09T05:46:11;14.70;;;6.85;;
52866;SDS011;38739;53.324;6.862;2022-09-09T05:48:39;13.68;;;6.82;;
52866;SDS011;38739;53.324;6.862;2022-09-09T05:51:11;12.85;;;7.00;;
52866;SDS011;38739;53.324;6.862;2022-09-09T05:53:41;10.00;;;7.10;;
52866;SDS011;38739;53.324;6.862;2022-09-09T05:56:09;10.75;;;6.95;;
52866;SDS011;38739;53.324;6.862;2022-09-09T05:58:42;13.05;;;8.23;;
52866;SDS011;38739;53.324;6.862;2022-09-09T06:01:19;15.32;;;8.60;;
52866;SDS011;38739;53.324;6.862;2022-09-09T06:03:47;12.73;;;8.25;;
52866;SDS011;38739;53.324;6.862;2022-09-09T06:06:18;13.88;;;8.93;;
52866;SDS011;38739;53.324;6.862;2022-09-09T06:08:49;16.50;;;8.88;;
52866;SDS011;38739;53.324;6.862;2022-09-09T06:11:20;16.20;;;9.00;;
52866;SDS011;38739;53.324;6.862;2022-09-09T06:13:48;11.88;;;9.13;;
52866;SDS011;38739;53.324;6.862;2022-09-09T06:16:17;13.48;;;8.73;;
52866;SDS011;38739;53.324;6.862;2022-09-09T06:18:44;14.02;;;9.38;;
52866;SDS011;38739;53.324;6.862;2022-09-09T06:21:15;14.27;;;9.45;;
52866;SDS011;38739;53.324;6.862;2022-09-09T06:23:42;15.82;;;9.15;;
52866;SDS011;38739;53.324;6.862;2022-09-09T06:26:20;14.68;;;9.10;;
52866;SDS011;38739;53.324;6.862;2022-09-09T06:28:48;14.65;;;8.93;;
52866;SDS011;38739;53.324;6.862;2022-09-09T06:31:16;14.82;;;8.85;;
52866;SDS011;38739;53.324;6.862;2022-09-09T06:33:47;14.98;;;9.10;;
52866;SDS011;38739;53.324;6.862;2022-09-09T06:36:18;15.52;;;9.25;;
52866;SDS011;38739;53.324;6.862;2022-09-09T06:38:46;12.90;;;8.53;;
52866;SDS011;38739;53.324;6.862;2022-09-09T06:41:12;13.57;;;8.60;;
52866;SDS011;38739;53.324;6.862;2022-09-09T06:43:39;10.38;;;7.97;;
52866;SDS011;38739;53.324;6.862;2022-09-09T06:46:06;12.95;;;8.23;;
52866;SDS011;38739;53.324;6.862;2022-09-09T06:48:35;11.25;;;8.20;;
52866;SDS011;38739;53.324;6.862;2022-09-09T06:51:10;13.90;;;7.95;;
52866;SDS011;38739;53.324;6.862;2022-09-09T06:53:41;12.02;;;8.00;;
52866;SDS011;38739;53.324;6.862;2022-09-09T06:58:36;15.32;;;8.57;;
52866;SDS011;38739;53.324;6.862;2022-09-09T07:01:06;11.73;;;7.55;;
52866;SDS011;38739;53.324;6.862;2022-09-09T07:03:32;12.75;;;7.95;;
52866;SDS011;38739;53.324;6.862;2022-09-09T07:05:58;13.98;;;8.30;;
52866;SDS011;38739;53.324;6.862;2022-09-09T07:08:25;15.23;;;7.70;;
52866;SDS011;38739;53.324;6.862;2022-09-09T07:10:52;13.27;;;8.50;;
52866;SDS011;38739;53.324;6.862;2022-09-09T07:13:24;13.25;;;8.48;;
52866;SDS011;38739;53.324;6.862;2022-09-09T07:15:51;13.65;;;8.02;;
52866;SDS011;38739;53.324;6.862;2022-09-09T07:18:17;10.68;;;7.85;;
52866;SDS011;38739;53.324;6.862;2022-09-09T07:20:52;12.63;;;8.40;;
52866;SDS011;38739;53.324;6.862;2022-09-09T07:23:19;9.98;;;7.00;;
52866;SDS011;38739;53.324;6.862;2022-09-09T07:25:45;13.13;;;8.32;;
52866;SDS011;38739;53.324;6.862;2022-09-09T07:28:12;12.32;;;8.23;;
52866;SDS011;38739;53.324;6.862;2022-09-09T07:30:38;13.63;;;8.70;;
52866;SDS011;38739;53.324;6.862;2022-09-09T07:33:05;14.68;;;8.30;;
52866;SDS011;38739;53.324;6.862;2022-09-09T07:35:31;11.68;;;8.15;;
52866;SDS011;38739;53.324;6.862;2022-09-09T07:37:58;10.60;;;7.72;;
52866;SDS011;38739;53.324;6.862;2022-09-09T07:40:26;11.10;;;7.20;;
52866;SDS011;38739;53.324;6.862;2022-09-09T07:42:52;10.65;;;7.60;;
52866;SDS011;38739;53.324;6.862;2022-09-09T07:45:18;9.40;;;6.78;;
52866;SDS011;38739;53.324;6.862;2022-09-09T07:47:44;11.85;;;6.85;;
52866;SDS011;38739;53.324;6.862;2022-09-09T07:50:10;9.00;;;6.28;;
52866;SDS011;38739;53.324;6.862;2022-09-09T07:52:36;10.07;;;6.53;;
52866;SDS011;38739;53.324;6.862;2022-09-09T07:55:02;9.75;;;6.55;;
52866;SDS011;38739;53.324;6.862;2022-09-09T07:57:29;10.30;;;6.45;;
52866;SDS011;38739;53.324;6.862;2022-09-09T07:59:56;10.35;;;6.28;;
52866;SDS011;38739;53.324;6.862;2022-09-09T08:02:22;8.70;;;6.07;;
52866;SDS011;38739;53.324;6.862;2022-09-09T08:04:48;9.88;;;6.22;;
52866;SDS011;38739;53.324;6.862;2022-09-09T08:07:14;7.82;;;5.88;;
52866;SDS011;38739;53.324;6.862;2022-09-09T08:09:41;10.23;;;6.20;;
52866;SDS011;38739;53.324;6.862;2022-09-09T08:12:07;8.60;;;5.93;;
52866;SDS011;38739;53.324;6.862;2022-09-09T08:14:34;9.52;;;6.20;;
52866;SDS011;38739;53.324;6.862;2022-09-09T08:17:00;9.57;;;6.00;;
52866;SDS011;38739;53.324;6.862;2022-09-09T08:19:26;10.13;;;5.22;;
52866;SDS011;38739;53.324;6.862;2022-09-09T08:21:54;9.55;;;5.55;;
52866;SDS011;38739;53.324;6.862;2022-09-09T08:24:20;9.30;;;5.63;;
52866;SDS011;38739;53.324;6.862;2022-09-09T08:26:47;7.15;;;4.60;;
52866;SDS011;38739;53.324;6.862;2022-09-09T08:29:16;9.05;;;5.18;;
52866;SDS011;38739;53.324;6.862;2022-09-09T08:31:47;6.80;;;4.57;;
52866;SDS011;38739;53.324;6.862;2022-09-09T08:34:14;7.85;;;4.40;;
52866;SDS011;38739;53.324;6.862;2022-09-09T08:36:41;7.72;;;4.95;;
52866;SDS011;38739;53.324;6.862;2022-09-09T08:39:09;6.68;;;4.68;;
52866;SDS011;38739;53.324;6.862;2022-09-09T08:52:38;7.82;;;4.82;;
52866;SDS011;38739;53.324;6.862;2022-09-09T08:55:27;7.75;;;4.80;;
52866;SDS011;38739;53.324;6.862;2022-09-09T09:00:52;7.47;;;4.57;;
52866;SDS011;38739;53.324;6.862;2022-09-09T09:12:06;8.73;;;4.82;;
52866;SDS011;38739;53.324;6.862;2022-09-09T09:14:40;8.93;;;4.30;;
52866;SDS011;38739;53.324;6.862;2022-09-09T09:17:11;7.22;;;4.35;;
52866;SDS011;38739;53.324;6.862;2022-09-09T09:19:40;7.85;;;4.22;;
52866;SDS011;38739;53.324;6.862;2022-09-09T09:30:36;7.88;;;3.78;;
52866;SDS011;38739;53.324;6.862;2022-09-09T09:35:54;7.47;;;3.60;;
52866;SDS011;38739;53.324;6.862;2022-09-09T09:38:24;7.35;;;3.90;;
52866;SDS011;38739;53.324;6.862;2022-09-09T09:40:55;7.72;;;4.20;;
52866;SDS011;38739;53.324;6.862;2022-09-09T09:43:27;8.10;;;4.13;;
52866;SDS011;38739;53.324;6.862;2022-09-09T09:45:54;13.18;;;4.57;;
52866;SDS011;38739;53.324;6.862;2022-09-09T09:48:23;9.88;;;4.45;;
52866;SDS011;38739;53.324;6.862;2022-09-09T09:50:56;8.20;;;4.78;;
52866;SDS011;38739;53.324;6.862;2022-09-09T09:53:26;8.00;;;4.20;;
52866;SDS011;38739;53.324;6.862;2022-09-09T09:55:58;7.40;;;4.03;;
52866;SDS011;38739;53.324;6.862;2022-09-09T09:58:26;6.35;;;4.00;;
52866;SDS011;38739;53.324;6.862;2022-09-09T10:00:57;6.55;;;3.80;;
52866;SDS011;38739;53.324;6.862;2022-09-09T10:03:26;7.45;;;4.38;;
52866;SDS011;38739;53.324;6.862;2022-09-09T10:05:56;7.78;;;3.72;;
52866;SDS011;38739;53.324;6.862;2022-09-09T10:08:23;6.55;;;4.00;;
52866;SDS011;38739;53.324;6.862;2022-09-09T10:13:27;8.13;;;3.85;;
52866;SDS011;38739;53.324;6.862;2022-09-09T10:16:12;8.75;;;3.60;;
52866;SDS011;38739;53.324;6.862;2022-09-09T10:18:58;6.13;;;3.22;;
52866;SDS011;38739;53.324;6.862;2022-09-09T10:33:30;6.85;;;2.70;;
52866;SDS011;38739;53.324;6.862;2022-09-09T10:36:24;9.68;;;3.00;;
52866;SDS011;38739;53.324;6.862;2022-09-09T10:46:49;9.85;;;2.67;;
52866;SDS011;38739;53.324;6.862;2022-09-09T10:52:32;8.50;;;2.42;;
52866;SDS011;38739;53.324;6.862;2022-09-09T10:55:19;7.95;;;1.90;;
52866;SDS011;38739;53.324;6.862;2022-09-09T11:00:21;8.20;;;2.20;;
52866;SDS011;38739;53.324;6.862;2022-09-09T11:03:05;9.40;;;2.47;;
52866;SDS011;38739;53.324;6.862;2022-09-09T11:05:42;5.75;;;1.90;;
52866;SDS011;38739;53.324;6.862;2022-09-09T11:08:21;7.07;;;2.05;;
52866;SDS011;38739;53.324;6.862;2022-09-09T11:11:04;6.70;;;1.95;;
52866;SDS011;38739;53.324;6.862;2022-09-09T11:16:42;9.70;;;2.50;;
52866;SDS011;38739;53.324;6.862;2022-09-09T11:29:52;6.68;;;2.10;;
52866;SDS011;38739;53.324;6.862;2022-09-09T11:35:38;9.23;;;1.75;;
52866;SDS011;38739;53.324;6.862;2022-09-09T11:41:04;6.60;;;2.03;;
52866;SDS011;38739;53.324;6.862;2022-09-09T11:43:44;5.63;;;1.63;;
52866;SDS011;38739;53.324;6.862;2022-09-09T11:46:15;6.80;;;1.55;;
52866;SDS011;38739;53.324;6.862;2022-09-09T11:48:44;6.50;;;1.60;;
52866;SDS011;38739;53.324;6.862;2022-09-09T11:53:49;7.10;;;1.83;;
52866;SDS011;38739;53.324;6.862;2022-09-09T11:56:24;4.75;;;1.40;;
52866;SDS011;38739;53.324;6.862;2022-09-09T12:12:22;6.53;;;1.55;;
52866;SDS011;38739;53.324;6.862;2022-09-09T12:17:22;5.45;;;1.45;;
52866;SDS011;38739;53.324;6.862;2022-09-09T12:29:19;4.90;;;1.42;;
52866;SDS011;38739;53.324;6.862;2022-09-09T12:32:10;4.28;;;1.20;;
52866;SDS011;38739;53.324;6.862;2022-09-09T12:34:40;5.15;;;1.38;;
52866;SDS011;38739;53.324;6.862;2022-09-09T12:40:18;4.53;;;1.10;;
52866;SDS011;38739;53.324;6.862;2022-09-09T12:42:54;5.32;;;1.90;;
52866;SDS011;38739;53.324;6.862;2022-09-09T12:45:24;7.97;;;1.55;;
52866;SDS011;38739;53.324;6.862;2022-09-09T12:50:21;7.97;;;1.65;;
52866;SDS011;38739;53.324;6.862;2022-09-09T12:53:00;5.75;;;1.38;;
52866;SDS011;38739;53.324;6.862;2022-09-09T12:55:32;7.63;;;1.48;;
52866;SDS011;38739;53.324;6.862;2022-09-09T12:58:01;4.93;;;1.23;;
52866;SDS011;38739;53.324;6.862;2022-09-09T13:00:31;9.55;;;1.30;;
52866;SDS011;38739;53.324;6.862;2022-09-09T13:02:59;6.93;;;1.50;;
52866;SDS011;38739;53.324;6.862;2022-09-09T13:05:36;3.90;;;1.20;;
52866;SDS011;38739;53.324;6.862;2022-09-09T13:08:08;5.35;;;1.20;;
52866;SDS011;38739;53.324;6.862;2022-09-09T13:10:37;3.72;;;1.10;;
52866;SDS011;38739;53.324;6.862;2022-09-09T13:13:16;4.32;;;1.27;;
52866;SDS011;38739;53.324;6.862;2022-09-09T13:15:58;5.05;;;1.50;;
52866;SDS011;38739;53.324;6.862;2022-09-09T13:18:33;6.63;;;1.20;;
52866;SDS011;38739;53.324;6.862;2022-09-09T13:21:01;9.05;;;1.63;;
52866;SDS011;38739;53.324;6.862;2022-09-09T13:23:29;5.93;;;1.20;;
52866;SDS011;38739;53.324;6.862;2022-09-09T13:26:01;3.40;;;1.20;;
52866;SDS011;38739;53.324;6.862;2022-09-09T13:28:31;5.60;;;1.33;;
52866;SDS011;38739;53.324;6.862;2022-09-09T13:31:02;5.57;;;1.40;;
52866;SDS011;38739;53.324;6.862;2022-09-09T13:36:02;5.00;;;1.00;;
52866;SDS011;38739;53.324;6.862;2022-09-09T13:38:38;5.40;;;1.15;;
52866;SDS011;38739;53.324;6.862;2022-09-09T13:41:43;3.70;;;1.40;;
52866;SDS011;38739;53.324;6.862;2022-09-09T13:44:17;4.57;;;1.45;;
52866;SDS011;38739;53.324;6.862;2022-09-09T13:46:48;5.07;;;1.30;;
52866;SDS011;38739;53.324;6.862;2022-09-09T13:49:33;5.00;;;1.30;;
52866;SDS011;38739;53.324;6.862;2022-09-09T13:52:03;5.18;;;1.60;;
52866;SDS011;38739;53.324;6.862;2022-09-09T13:54:32;12.77;;;1.95;;
52866;SDS011;38739;53.324;6.862;2022-09-09T13:56:58;4.47;;;1.15;;
52866;SDS011;38739;53.324;6.862;2022-09-09T13:59:24;4.50;;;1.10;;
52866;SDS011;38739;53.324;6.862;2022-09-09T14:01:51;3.10;;;1.20;;
52866;SDS011;38739;53.324;6.862;2022-09-09T14:04:17;5.15;;;1.23;;
52866;SDS011;38739;53.324;6.862;2022-09-09T14:06:46;4.95;;;1.10;;
52866;SDS011;38739;53.324;6.862;2022-09-09T14:09:13;4.65;;;1.08;;
52866;SDS011;38739;53.324;6.862;2022-09-09T14:11:40;5.55;;;1.52;;
52866;SDS011;38739;53.324;6.862;2022-09-09T14:14:06;4.22;;;1.20;;
52866;SDS011;38739;53.324;6.862;2022-09-09T14:16:32;11.65;;;2.13;;
52866;SDS011;38739;53.324;6.862;2022-09-09T14:18:58;7.75;;;1.80;;
52866;SDS011;38739;53.324;6.862;2022-09-09T14:21:24;9.20;;;1.63;;
52866;SDS011;38739;53.324;6.862;2022-09-09T14:23:51;6.57;;;1.45;;
52866;SDS011;38739;53.324;6.862;2022-09-09T14:26:20;7.13;;;1.40;;
52866;SDS011;38739;53.324;6.862;2022-09-09T14:28:47;6.80;;;1.58;;
52866;SDS011;38739;53.324;6.862;2022-09-09T14:31:13;5.47;;;1.50;;
52866;SDS011;38739;53.324;6.862;2022-09-09T14:33:39;6.25;;;1.50;;
52866;SDS011;38739;53.324;6.862;2022-09-09T14:36:05;4.93;;;1.45;;
52866;SDS011;38739;53.324;6.862;2022-09-09T14:38:32;6.93;;;1.40;;
52866;SDS011;38739;53.324;6.862;2022-09-09T14:43:29;6.45;;;1.80;;
52866;SDS011;38739;53.324;6.862;2022-09-09T14:45:57;9.15;;;1.42;;
52866;SDS011;38739;53.324;6.862;2022-09-09T14:48:42;4.22;;;1.48;;
52866;SDS011;38739;53.324;6.862;2022-09-09T14:51:16;4.82;;;1.60;;
52866;SDS011;38739;53.324;6.862;2022-09-09T14:53:44;4.60;;;1.33;;
52866;SDS011;38739;53.324;6.862;2022-09-09T14:56:15;4.20;;;1.48;;
52866;SDS011;38739;53.324;6.862;2022-09-09T14:58:43;4.15;;;0.98;;
52866;SDS011;38739;53.324;6.862;2022-09-09T15:01:10;4.90;;;1.20;;
52866;SDS011;38739;53.324;6.862;2022-09-09T15:03:38;4.28;;;1.17;;
52866;SDS011;38739;53.324;6.862;2022-09-09T15:06:09;5.07;;;1.00;;
52866;SDS011;38739;53.324;6.862;2022-09-09T15:08:37;3.90;;;1.10;;
52866;SDS011;38739;53.324;6.862;2022-09-09T15:11:04;3.42;;;1.10;;
52866;SDS011;38739;53.324;6.862;2022-09-09T15:13:32;4.78;;;1.42;;
52866;SDS011;38739;53.324;6.862;2022-09-09T15:16:13;4.15;;;1.10;;
52866;SDS011;38739;53.324;6.862;2022-09-09T15:18:40;3.92;;;1.42;;
52866;SDS011;38739;53.324;6.862;2022-09-09T15:21:17;4.32;;;1.45;;
52866;SDS011;38739;53.324;6.862;2022-09-09T15:23:45;4.88;;;1.10;;
52866;SDS011;38739;53.324;6.862;2022-09-09T15:26:12;5.05;;;1.33;;
52866;SDS011;38739;53.324;6.862;2022-09-09T15:28:41;6.05;;;1.95;;
52866;SDS011;38739;53.324;6.862;2022-09-09T15:31:18;8.48;;;1.65;;
52866;SDS011;38739;53.324;6.862;2022-09-09T15:33:55;7.15;;;2.30;;
52866;SDS011;38739;53.324;6.862;2022-09-09T15:36:34;8.00;;;1.67;;
52866;SDS011;38739;53.324;6.862;2022-09-09T15:39:02;8.05;;;1.70;;
52866;SDS011;38739;53.324;6.862;2022-09-09T15:41:29;3.80;;;1.55;;
52866;SDS011;38739;53.324;6.862;2022-09-09T15:43:58;14.30;;;2.25;;
52866;SDS011;38739;53.324;6.862;2022-09-09T15:46:29;5.93;;;2.25;;
52866;SDS011;38739;53.324;6.862;2022-09-09T15:48:58;3.78;;;1.90;;
52866;SDS011;38739;53.324;6.862;2022-09-09T15:51:29;7.90;;;1.92;;
52866;SDS011;38739;53.324;6.862;2022-09-09T15:53:56;4.43;;;1.95;;
52866;SDS011;38739;53.324;6.862;2022-09-09T15:56:23;5.47;;;2.00;;
52866;SDS011;38739;53.324;6.862;2022-09-09T15:58:52;7.30;;;2.50;;
52866;SDS011;38739;53.324;6.862;2022-09-09T16:01:20;7.45;;;2.00;;
52866;SDS011;38739;53.324;6.862;2022-09-09T16:03:45;6.13;;;2.05;;
52866;SDS011;38739;53.324;6.862;2022-09-09T16:06:13;5.25;;;1.33;;
52866;SDS011;38739;53.324;6.862;2022-09-09T16:08:40;3.88;;;0.90;;
52866;SDS011;38739;53.324;6.862;2022-09-09T16:11:08;1.35;;;0.45;;
52866;SDS011;38739;53.324;6.862;2022-09-09T16:13:35;2.85;;;0.60;;
52866;SDS011;38739;53.324;6.862;2022-09-09T16:16:02;1.20;;;0.40;;
52866;SDS011;38739;53.324;6.862;2022-09-09T16:18:36;0.98;;;0.35;;
52866;SDS011;38739;53.324;6.862;2022-09-09T16:21:03;1.13;;;0.40;;
52866;SDS011;38739;53.324;6.862;2022-09-09T16:23:31;0.68;;;0.20;;
52866;SDS011;38739;53.324;6.862;2022-09-09T16:25:57;1.38;;;0.30;;
52866;SDS011;38739;53.324;6.862;2022-09-09T16:28:23;0.70;;;0.40;;
52866;SDS011;38739;53.324;6.862;2022-09-09T16:30:49;1.48;;;0.40;;
52866;SDS011;38739;53.324;6.862;2022-09-09T16:33:15;1.67;;;0.47;;
52866;SDS011;38739;53.324;6.862;2022-09-09T16:35:42;1.73;;;0.50;;
52866;SDS011;38739;53.324;6.862;2022-09-09T16:38:08;2.20;;;0.50;;
52866;SDS011;38739;53.324;6.862;2022-09-09T16:40:34;1.52;;;0.40;;
52866;SDS011;38739;53.324;6.862;2022-09-09T16:43:01;1.50;;;0.60;;
52866;SDS011;38739;53.324;6.862;2022-09-09T16:45:27;1.67;;;0.60;;
52866;SDS011;38739;53.324;6.862;2022-09-09T16:47:54;2.20;;;0.75;;
52866;SDS011;38739;53.324;6.862;2022-09-09T16:50:19;1.83;;;0.70;;
52866;SDS011;38739;53.324;6.862;2022-09-09T16:52:45;2.40;;;0.80;;
52866;SDS011;38739;53.324;6.862;2022-09-09T16:55:11;3.10;;;0.90;;
52866;SDS011;38739;53.324;6.862;2022-09-09T16:57:36;2.00;;;0.80;;
52866;SDS011;38739;53.324;6.862;2022-09-09T17:00:03;3.38;;;0.98;;
52866;SDS011;38739;53.324;6.862;2022-09-09T17:02:31;2.78;;;0.85;;
52866;SDS011;38739;53.324;6.862;2022-09-09T17:04:57;5.13;;;1.00;;
52866;SDS011;38739;53.324;6.862;2022-09-09T17:07:24;3.15;;;1.10;;
52866;SDS011;38739;53.324;6.862;2022-09-09T17:09:50;1.85;;;1.00;;
52866;SDS011;38739;53.324;6.862;2022-09-09T17:12:16;1.80;;;0.90;;
52866;SDS011;38739;53.324;6.862;2022-09-09T17:14:42;2.35;;;1.17;;
52866;SDS011;38739;53.324;6.862;2022-09-09T17:17:08;5.10;;;1.30;;
52866;SDS011;38739;53.324;6.862;2022-09-09T17:19:34;3.85;;;1.30;;
52866;SDS011;38739;53.324;6.862;2022-09-09T17:21:59;4.90;;;1.10;;
52866;SDS011;38739;53.324;6.862;2022-09-09T17:24:26;2.80;;;1.30;;
52866;SDS011;38739;53.324;6.862;2022-09-09T17:26:53;3.17;;;1.23;;
52866;SDS011;38739;53.324;6.862;2022-09-09T17:29:20;3.55;;;1.55;;
52866;SDS011;38739;53.324;6.862;2022-09-09T17:31:46;3.08;;;1.50;;
52866;SDS011;38739;53.324;6.862;2022-09-09T17:34:12;4.47;;;1.73;;
52866;SDS011;38739;53.324;6.862;2022-09-09T17:36:38;2.53;;;1.20;;
52866;SDS011;38739;53.324;6.862;2022-09-09T17:39:04;5.20;;;1.75;;
52866;SDS011;38739;53.324;6.862;2022-09-09T17:41:34;3.15;;;1.60;;
52866;SDS011;38739;53.324;6.862;2022-09-09T17:44:02;4.57;;;1.55;;